Time,TemperatureF,DewpointF,PressureIn,WindDirection,WindDirectionDegrees,WindSpeedMPH,WindSpeedGustMPH,Humidity,HourlyPrecipIn,Conditions,Clouds,dailyrainin,SoftwareType,DateUTC
2013-06-16 00:01:00,51.3,50.8,29.91,NNW,337,0.0,-999.0,98,-99.99,,,0.00,Acu-Link.com,2013-06-16 04:01:00,
2013-06-16 00:16:00,50.9,50.4,29.91,North,0,0.0,-999.0,98,-99.99,,,0.00,Acu-Link.com,2013-06-16 04:16:00,
2013-06-16 00:31:00,50.5,50.0,29.91,NNE,22,0.0,-999.0,98,-99.99,,,0.00,Acu-Link.com,2013-06-16 04:31:00,
2013-06-16 00:46:00,50.2,49.7,29.91,NNW,337,0.0,-999.0,98,-99.99,,,0.00,Acu-Link.com,2013-06-16 04:46:00,
2013-06-16 01:02:00,50.0,49.5,29.90,NNE,22,0.0,-999.0,98,-99.99,,,0.00,Acu-Link.com,2013-06-16 05:02:00,
2013-06-16 01:17:00,49.8,49.3,29.90,WSW,247,0.0,-999.0,98,-99.99,,,0.00,Acu-Link.com,2013-06-16 05:17:00,
2013-06-16 01:32:00,49.5,49.0,29.90,North,0,0.0,-999.0,98,-99.99,,,0.00,Acu-Link.com,2013-06-16 05:32:00,
2013-06-16 01:47:00,49.3,48.8,29.91,NE,45,0.0,-999.0,98,-99.99,,,0.00,Acu-Link.com,2013-06-16 05:47:00,
2013-06-16 02:02:00,48.9,48.4,29.91,NW,315,0.0,-999.0,98,-99.99,,,0.00,Acu-Link.com,2013-06-16 06:02:00,
2013-06-16 02:17:00,48.6,48.1,29.91,NNW,337,0.0,-999.0,98,-99.99,,,0.00,Acu-Link.com,2013-06-16 06:17:00,
2013-06-16 02:32:00,48.4,47.9,29.91,NNW,337,0.0,-999.0,98,-99.99,,,0.00,Acu-Link.com,2013-06-16 06:32:00,
2013-06-16 02:47:00,48.0,47.5,29.91,NNE,22,0.0,-999.0,98,-99.99,,,0.00,Acu-Link.com,2013-06-16 06:47:00,
2013-06-16 03:02:00,47.7,47.2,29.91,NNW,337,0.0,-999.0,98,-99.99,,,0.00,Acu-Link.com,2013-06-16 07:02:00,
2013-06-16 03:18:00,47.7,47.2,29.91,NNW,337,0.0,-999.0,98,-99.99,,,0.00,Acu-Link.com,2013-06-16 07:18:00,
2013-06-16 03:33:00,47.1,46.6,29.91,North,0,0.0,-999.0,98,-99.99,,,0.00,Acu-Link.com,2013-06-16 07:33:00,
2013-06-16 03:48:00,47.1,46.6,29.90,NE,45,0.0,-999.0,98,-99.99,,,0.00,Acu-Link.com,2013-06-16 07:48:00,
2013-06-16 04:03:00,46.8,46.3,29.90,NE,45,0.0,-999.0,98,-99.99,,,0.00,Acu-Link.com,2013-06-16 08:03:00,
2013-06-16 04:18:00,46.4,45.9,29.90,North,0,0.0,-999.0,98,-99.99,,,0.00,Acu-Link.com,2013-06-16 08:18:00,
2013-06-16 04:33:00,46.0,45.5,29.90,NNE,22,0.0,-999.0,98,-99.99,,,0.00,Acu-Link.com,2013-06-16 08:33:00,
2013-06-16 04:48:00,45.9,45.4,29.90,SSE,157,0.0,-999.0,98,-99.99,,,0.00,Acu-Link.com,2013-06-16 08:48:00,
2013-06-16 05:04:00,45.5,45.0,29.90,North,0,0.0,-999.0,98,-99.99,,,0.00,Acu-Link.com,2013-06-16 09:04:00,
2013-06-16 05:19:00,45.5,45.0,29.91,ESE,112,0.0,-999.0,98,-99.99,,,0.00,Acu-Link.com,2013-06-16 09:19:00,
2013-06-16 05:34:00,45.5,45.0,29.92,WSW,247,0.0,-999.0,98,-99.99,,,0.00,Acu-Link.com,2013-06-16 09:34:00,
2013-06-16 05:49:00,45.7,45.2,29.92,NE,45,0.0,-999.0,98,-99.99,,,0.00,Acu-Link.com,2013-06-16 09:49:00,
2013-06-16 06:04:00,46.2,45.7,29.92,NE,45,0.0,-999.0,98,-99.99,,,0.00,Acu-Link.com,2013-06-16 10:04:00,
2013-06-16 06:19:00,47.3,46.8,29.92,NE,45,0.0,-999.0,98,-99.99,,,0.00,Acu-Link.com,2013-06-16 10:19:00,
2013-06-16 06:34:00,48.0,47.5,29.91,East,90,0.0,-999.0,98,-99.99,,,0.00,Acu-Link.com,2013-06-16 10:34:00,
2013-06-16 06:49:00,49.1,48.6,29.91,ESE,112,0.0,-999.0,98,-99.99,,,0.00,Acu-Link.com,2013-06-16 10:49:00,
2013-06-16 07:05:00,52.2,51.7,29.91,NE,45,2.2,-999.0,98,-99.99,,,0.00,Acu-Link.com,2013-06-16 11:05:00,
2013-06-16 07:20:00,54.3,53.7,29.91,NNE,22,0.0,-999.0,98,-99.99,,,0.00,Acu-Link.com,2013-06-16 11:20:00,
2013-06-16 07:35:00,55.9,55.3,29.91,NE,45,0.0,-999.0,98,-99.99,,,0.00,Acu-Link.com,2013-06-16 11:35:00,
2013-06-16 07:50:00,56.7,56.1,29.91,NE,45,0.0,-999.0,98,-99.99,,,0.00,Acu-Link.com,2013-06-16 11:50:00,
2013-06-16 08:05:00,59.4,57.7,29.90,SSE,157,0.0,-999.0,94,-99.99,,,0.00,Acu-Link.com,2013-06-16 12:05:00,
2013-06-16 08:20:00,60.3,57.4,29.90,SSE,157,0.0,-999.0,90,-99.99,,,0.00,Acu-Link.com,2013-06-16 12:20:00,
2013-06-16 08:35:00,61.9,59.2,29.90,South,180,0.0,-999.0,91,-99.99,,,0.00,Acu-Link.com,2013-06-16 12:35:00,
2013-06-16 08:50:00,64.2,60.2,29.89,ESE,112,1.1,-999.0,87,-99.99,,,0.00,Acu-Link.com,2013-06-16 12:50:00,
2013-06-16 09:05:00,67.3,62.0,29.89,South,180,0.0,-999.0,83,-99.99,,,0.00,Acu-Link.com,2013-06-16 13:05:00,
2013-06-16 09:20:00,70.2,62.3,29.89,South,180,1.7,-999.0,76,-99.99,,,0.00,Acu-Link.com,2013-06-16 13:20:00,
2013-06-16 09:36:00,71.1,61.2,29.88,SSE,157,0.0,-999.0,71,-99.99,,,0.00,Acu-Link.com,2013-06-16 13:36:00,
2013-06-16 09:51:00,69.6,60.6,29.88,South,180,1.7,-999.0,73,-99.99,,,0.00,Acu-Link.com,2013-06-16 13:51:00,
2013-06-16 10:06:00,72.5,61.3,29.87,South,180,2.2,-999.0,68,-99.99,,,0.00,Acu-Link.com,2013-06-16 14:06:00,
2013-06-16 10:21:00,71.8,61.5,29.87,SSW,202,0.0,-999.0,70,-99.99,,,0.00,Acu-Link.com,2013-06-16 14:21:00,
2013-06-16 10:36:00,73.4,61.8,29.86,WSW,247,1.7,-999.0,67,-99.99,,,0.00,Acu-Link.com,2013-06-16 14:36:00,
2013-06-16 10:51:00,72.7,60.2,29.85,South,180,2.7,-999.0,65,-99.99,,,0.00,Acu-Link.com,2013-06-16 14:51:00,
2013-06-16 11:06:00,71.6,60.9,29.85,West,270,0.0,-999.0,69,-99.99,,,0.00,Acu-Link.com,2013-06-16 15:06:00,
2013-06-16 11:21:00,73.4,62.2,29.85,SSW,202,0.0,-999.0,68,-99.99,,,0.00,Acu-Link.com,2013-06-16 15:21:00,
2013-06-16 11:36:00,72.5,62.5,29.84,SSW,202,1.1,-999.0,71,-99.99,,,0.00,Acu-Link.com,2013-06-16 15:36:00,
2013-06-16 11:52:00,72.9,63.3,29.83,SSE,157,1.7,-999.0,72,-99.99,,,0.00,Acu-Link.com,2013-06-16 15:52:00,
2013-06-16 12:07:00,74.1,63.7,29.82,South,180,2.7,-999.0,70,-99.99,,,0.00,Acu-Link.com,2013-06-16 16:07:00,
2013-06-16 12:22:00,73.0,64.2,29.82,South,180,0.0,-999.0,74,-99.99,,,0.00,Acu-Link.com,2013-06-16 16:22:00,
2013-06-16 12:37:00,76.1,63.9,29.81,SSW,202,4.2,-999.0,66,-99.99,,,0.00,Acu-Link.com,2013-06-16 16:37:00,
2013-06-16 12:52:00,74.8,63.1,29.80,WSW,247,2.7,-999.0,67,-99.99,,,0.00,Acu-Link.com,2013-06-16 16:52:00,
2013-06-16 13:07:00,75.2,61.7,29.80,NNE,22,1.1,-999.0,63,-99.99,,,0.00,Acu-Link.com,2013-06-16 17:07:00,
2013-06-16 13:22:00,76.8,62.8,29.79,SSW,202,1.1,-999.0,62,-99.99,,,0.00,Acu-Link.com,2013-06-16 17:22:00,
2013-06-16 13:37:00,76.3,62.3,29.79,WNW,292,0.0,-999.0,62,-99.99,,,0.00,Acu-Link.com,2013-06-16 17:37:00,
2013-06-16 13:52:00,74.8,63.1,29.78,West,270,0.0,-999.0,67,-99.99,,,0.00,Acu-Link.com,2013-06-16 17:52:00,
2013-06-16 14:08:00,75.0,62.9,29.77,SSW,202,0.0,-999.0,66,-99.99,,,0.00,Acu-Link.com,2013-06-16 18:08:00,
2013-06-16 14:23:00,74.1,62.0,29.76,SSE,157,1.1,-999.0,66,-99.99,,,0.00,Acu-Link.com,2013-06-16 18:23:00,
2013-06-16 14:38:00,75.2,61.3,29.75,North,0,1.1,-999.0,62,-99.99,,,0.00,Acu-Link.com,2013-06-16 18:38:00,
2013-06-16 14:53:00,74.3,63.0,29.74,SSW,202,0.0,-999.0,68,-99.99,,,0.00,Acu-Link.com,2013-06-16 18:53:00,
2013-06-16 15:08:00,73.9,62.2,29.73,SSW,202,0.0,-999.0,67,-99.99,,,0.00,Acu-Link.com,2013-06-16 19:08:00,
2013-06-16 15:23:00,73.4,62.6,29.73,SW,225,0.0,-999.0,69,-99.99,,,0.00,Acu-Link.com,2013-06-16 19:23:00,
2013-06-16 15:38:00,73.4,62.2,29.72,South,180,0.0,-999.0,68,-99.99,,,0.00,Acu-Link.com,2013-06-16 19:38:00,
2013-06-16 15:53:00,73.4,61.3,29.72,SSW,202,1.7,-999.0,66,-99.99,,,0.00,Acu-Link.com,2013-06-16 19:53:00,
2013-06-16 16:08:00,73.0,61.0,29.71,SSW,202,0.0,-999.0,66,-99.99,,,0.00,Acu-Link.com,2013-06-16 20:08:00,
2013-06-16 16:24:00,71.8,61.5,29.70,SSE,157,0.0,-999.0,70,-99.99,,,0.00,Acu-Link.com,2013-06-16 20:24:00,
2013-06-16 16:39:00,72.3,62.4,29.70,South,180,0.0,-999.0,71,-99.99,,,0.00,Acu-Link.com,2013-06-16 20:39:00,
2013-06-16 16:54:00,73.0,63.8,29.69,East,90,0.0,-999.0,73,-99.99,,,0.00,Acu-Link.com,2013-06-16 20:54:00,
2013-06-16 17:09:00,72.9,63.7,29.69,SW,225,0.0,-999.0,73,-99.99,,,0.00,Acu-Link.com,2013-06-16 21:09:00,
2013-06-16 17:24:00,72.1,63.7,29.69,South,180,0.0,-999.0,75,-99.99,,,0.00,Acu-Link.com,2013-06-16 21:24:00,
2013-06-16 17:39:00,73.8,64.6,29.67,SW,225,0.0,-999.0,73,-99.99,,,0.00,Acu-Link.com,2013-06-16 21:39:00,
2013-06-16 17:54:00,73.8,65.0,29.67,West,270,0.0,-999.0,74,-99.99,,,0.00,Acu-Link.com,2013-06-16 21:54:00,
2013-06-16 18:09:00,73.4,65.4,29.67,South,180,0.0,-999.0,76,-99.99,,,0.00,Acu-Link.com,2013-06-16 22:09:00,
2013-06-16 18:25:00,72.3,65.4,29.67,SSW,202,0.0,-999.0,79,-99.99,,,0.00,Acu-Link.com,2013-06-16 22:25:00,
2013-06-16 18:40:00,71.6,65.5,29.67,West,270,0.0,-999.0,81,-99.99,,,0.00,Acu-Link.com,2013-06-16 22:40:00,
2013-06-16 18:55:00,71.8,66.0,29.66,South,180,0.0,-999.0,82,-99.99,,,0.00,Acu-Link.com,2013-06-16 22:55:00,
2013-06-16 19:10:00,71.4,66.0,29.66,SSW,202,1.1,-999.0,83,-99.99,,,0.00,Acu-Link.com,2013-06-16 23:10:00,
2013-06-16 19:25:00,71.4,66.3,29.67,South,180,0.0,-999.0,84,-99.99,,,0.00,Acu-Link.com,2013-06-16 23:25:00,
2013-06-16 19:40:00,71.2,66.5,29.67,South,180,0.0,-999.0,85,-99.99,,,0.00,Acu-Link.com,2013-06-16 23:40:00,
2013-06-16 19:55:00,71.2,66.8,29.66,SSW,202,0.0,-999.0,86,-99.99,,,0.00,Acu-Link.com,2013-06-16 23:55:00,
2013-06-16 20:10:00,70.9,66.8,29.67,South,180,1.7,-999.0,87,-99.99,,,0.00,Acu-Link.com,2013-06-17 00:10:00,
2013-06-16 20:26:00,70.7,66.6,29.68,SW,225,0.0,-999.0,87,-99.99,,,0.00,Acu-Link.com,2013-06-17 00:26:00,
2013-06-16 20:41:00,70.2,66.8,29.68,South,180,0.0,-999.0,89,-99.99,,,0.00,Acu-Link.com,2013-06-17 00:41:00,
2013-06-16 20:56:00,70.0,66.6,29.68,SW,225,0.0,-999.0,89,-99.99,,,0.00,Acu-Link.com,2013-06-17 00:56:00,
2013-06-16 21:11:00,69.6,66.9,29.68,South,180,0.0,-999.0,91,-99.99,,,0.00,Acu-Link.com,2013-06-17 01:11:00,
2013-06-16 21:26:00,68.7,66.3,29.69,ESE,112,0.0,-999.0,92,-99.99,,,0.00,Acu-Link.com,2013-06-17 01:26:00,
2013-06-16 21:41:00,68.0,67.4,29.69,SSE,157,0.0,-999.0,98,-99.99,,,0.00,Acu-Link.com,2013-06-17 01:41:00,
2013-06-16 21:56:00,67.1,66.5,29.70,NNE,22,0.0,-999.0,98,-99.99,,,0.00,Acu-Link.com,2013-06-17 01:56:00,
2013-06-16 22:11:00,66.2,65.6,29.70,North,0,0.0,-999.0,98,-99.99,,,0.00,Acu-Link.com,2013-06-17 02:11:00,
2013-06-16 22:26:00,65.3,64.7,29.71,ESE,112,0.0,-999.0,98,-99.99,,,0.00,Acu-Link.com,2013-06-17 02:26:00,
2013-06-16 22:42:00,64.4,63.8,29.71,NNW,337,0.0,-999.0,98,-99.99,,,0.00,Acu-Link.com,2013-06-17 02:42:00,
2013-06-16 22:57:00,63.9,63.3,29.72,East,90,0.0,-999.0,98,-99.99,,,0.00,Acu-Link.com,2013-06-17 02:57:00,
2013-06-16 23:12:00,63.9,63.3,29.73,South,180,0.0,-999.0,98,-99.99,,,0.00,Acu-Link.com,2013-06-17 03:12:00,
2013-06-16 23:27:00,63.7,63.1,29.73,NNW,337,2.7,-999.0,98,-99.99,,,0.00,Acu-Link.com,2013-06-17 03:27:00,
2013-06-16 23:42:00,66.4,64.9,29.74,NNE,22,2.2,-999.0,95,-99.99,,,0.00,Acu-Link.com,2013-06-17 03:42:00,
2013-06-16 23:57:00,66.7,63.4,29.74,SSE,157,0.0,-999.0,89,-99.99,,,0.00,Acu-Link.com,2013-06-17 03:57:00,